Time;durP1;ratioP1;P1;durP2;ratioP2;P2;SDS_P1;SDS_P2;PMS_P1;PMS_P2;Temp;Humidity;BMP_temperature;BMP_pressure;BME280_temperature;BME280_humidity;BME280_pressure;Samples;Min_cycle;Max_cycle;Signal;HPM_P1;HPM_P2
2021/03/15 00:00:11;;;;;;;25.42;13.63;;;;;;;4.89;61.60;98834.94;5056452;28;20058;-55
2021/03/15 00:02:38;;;;;;;23.45;13.02;;;;;;;5.36;61.07;98904.03;5071042;28;20413;-56
2021/03/15 00:05:06;;;;;;;21.35;12.48;;;;;;;5.24;60.65;98889.84;5071136;28;20071;-57
2021/03/15 00:07:32;;;;;;;24.95;13.80;;;;;;;5.39;60.46;98901.13;5071546;28;20040;-59
2021/03/15 00:09:57;;;;;;;22.92;12.73;;;;;;;5.42;61.23;98906.22;5072376;28;20508;-53
2021/03/15 00:12:23;;;;;;;21.65;13.80;;;;;;;5.43;61.04;98907.06;5053386;28;20065;-52
2021/03/15 00:14:49;;;;;;;25.17;14.07;;;;;;;5.41;61.12;98915.13;5053170;28;20041;-55
2021/03/15 00:17:14;;;;;;;24.45;14.57;;;;;;;5.41;60.76;98909.84;5052660;28;20044;-53
2021/03/15 00:19:40;;;;;;;22.25;13.73;;;;;;;5.11;60.61;98847.44;5052615;28;20041;-51
2021/03/15 00:22:05;;;;;;;23.33;13.50;;;;;;;5.20;60.91;98871.63;5053250;28;20052;-54
2021/03/15 00:24:31;;;;;;;21.85;13.15;;;;;;;5.43;60.70;98893.81;5051554;28;20106;-51
2021/03/15 00:26:56;;;;;;;22.70;13.18;;;;;;;5.45;60.97;98898.06;5052747;28;20170;-52
2021/03/15 00:29:22;;;;;;;20.85;13.57;;;;;;;5.47;60.88;98905.88;5070866;28;20036;-49
2021/03/15 00:31:49;;;;;;;22.50;14.10;;;;;;;5.44;61.21;98906.13;5068170;28;20103;-52
2021/03/15 00:34:15;;;;;;;23.65;13.35;;;;;;;5.42;61.42;98892.94;5070894;28;20029;-49
2021/03/15 00:36:41;;;;;;;21.83;13.23;;;;;;;5.37;61.11;98895.09;5071723;28;20040;-49
2021/03/15 00:39:07;;;;;;;19.35;12.55;;;;;;;5.44;61.36;98899.00;5072599;28;20501;-48
2021/03/15 00:41:32;;;;;;;23.45;14.15;;;;;;;5.44;61.39;98898.16;5060786;28;20033;-49
2021/03/15 00:43:58;;;;;;;22.23;13.40;;;;;;;5.34;61.07;98892.69;5066970;28;20040;-48
2021/03/15 00:46:23;;;;;;;22.75;13.63;;;;;;;5.40;61.71;98899.34;5071896;28;20053;-53
2021/03/15 00:48:49;;;;;;;24.30;14.00;;;;;;;5.41;61.66;98895.72;5071950;28;20118;-49
2021/03/15 00:51:14;;;;;;;23.55;13.80;;;;;;;5.40;61.49;98886.06;5059626;28;20047;-51
2021/03/15 00:53:39;;;;;;;21.77;13.45;;;;;;;5.42;61.81;98892.13;5060321;28;20043;-53
2021/03/15 00:56:05;;;;;;;21.45;13.38;;;;;;;5.43;61.89;98899.13;5052021;28;20130;-56
2021/03/15 00:58:31;;;;;;;23.60;14.50;;;;;;;5.46;61.75;98891.78;5051952;28;20236;-54
2021/03/15 01:00:56;;;;;;;22.13;13.20;;;;;;;5.44;61.40;98884.88;5050319;28;20068;-56
2021/03/15 01:03:22;;;;;;;24.52;14.65;;;;;;;5.30;61.93;98870.84;5056782;28;20028;-54
2021/03/15 01:05:49;;;;;;;22.83;14.13;;;;;;;5.38;61.72;98885.34;5061569;28;20482;-52
2021/03/15 01:08:16;;;;;;;25.40;14.40;;;;;;;5.07;62.19;98839.84;5052400;28;20515;-57
2021/03/15 01:10:45;;;;;;;29.23;15.35;;;;;;;5.10;62.00;98856.38;5051650;28;20036;-56
2021/03/15 01:13:11;;;;;;;24.35;14.45;;;;;;;5.28;62.33;98872.72;5051355;28;20029;-52
2021/03/15 01:15:39;;;;;;;24.40;15.07;;;;;;;5.35;62.23;98893.53;5070658;28;20446;-54
2021/03/15 01:18:05;;;;;;;27.17;15.48;;;;;;;5.38;62.32;98877.38;5069431;28;20579;-55
2021/03/15 01:20:31;;;;;;;26.17;15.32;;;;;;;5.26;62.14;98871.16;5069346;28;20038;-55
2021/03/15 01:22:56;;;;;;;26.25;16.08;;;;;;;5.30;62.05;98873.50;5070529;28;20036;-55
2021/03/15 01:25:37;;;;;;;27.85;16.95;;;;;;;5.38;62.73;98885.34;5056955;28;20530;-56
2021/03/15 01:28:09;;;;;;;26.48;15.63;;;;;;;4.93;62.77;98828.44;5051338;28;20033;-53
2021/03/15 01:30:36;;;;;;;28.58;15.00;;;;;;;5.32;62.52;98887.50;5052594;28;20052;-54
2021/03/15 01:33:02;;;;;;;28.42;16.38;;;;;;;5.27;62.59;98889.63;5051212;28;20044;-54
2021/03/15 01:35:28;;;;;;;26.27;15.13;;;;;;;4.92;62.53;98824.09;5062074;28;20043;-51
2021/03/15 01:37:54;;;;;;;24.70;14.85;;;;;;;5.20;62.99;98867.16;5069636;28;20127;-54
2021/03/15 01:40:20;;;;;;;26.27;15.70;;;;;;;4.93;62.83;98822.28;5070701;28;20028;-53
2021/03/15 01:42:46;;;;;;;29.88;16.65;;;;;;;5.32;62.85;98890.16;5069412;28;20060;-49
2021/03/15 01:45:12;;;;;;;29.88;17.08;;;;;;;5.21;63.15;98881.28;5065142;28;20053;-55
2021/03/15 01:47:40;;;;;;;30.02;17.10;;;;;;;5.19;63.46;98886.69;5051530;28;20410;-54
2021/03/15 01:50:07;;;;;;;28.17;15.88;;;;;;;5.22;64.10;98881.16;5051934;28;20045;-55
2021/03/15 01:52:35;;;;;;;24.55;15.65;;;;;;;5.24;63.14;98889.84;5059925;28;20490;-56
2021/03/15 01:55:00;;;;;;;28.38;16.83;;;;;;;5.21;63.06;98879.47;5051804;28;20039;-52
2021/03/15 01:57:26;;;;;;;28.35;16.20;;;;;;;5.15;63.51;98891.38;5069401;28;20037;-55
2021/03/15 01:59:52;;;;;;;27.40;16.20;;;;;;;5.19;63.28;98875.25;5068546;28;20036;-54
2021/03/15 02:02:18;;;;;;;28.52;17.63;;;;;;;5.15;63.71;98880.75;5070648;28;20038;-53
2021/03/15 02:04:44;;;;;;;31.00;17.10;;;;;;;5.14;63.86;98864.97;5070749;28;20029;-55
2021/03/15 02:07:10;;;;;;;29.27;16.50;;;;;;;5.16;63.41;98871.84;5056943;28;20383;-55
2021/03/15 02:09:35;;;;;;;27.52;16.77;;;;;;;5.18;63.37;98874.38;5051293;28;20512;-56
2021/03/15 02:12:10;;;;;;;28.98;16.60;;;;;;;5.20;63.76;98875.13;5051553;28;20045;-56
2021/03/15 02:14:54;;;;;;;30.13;16.98;;;;;;;5.27;64.42;98873.69;5050571;28;20037;-53
2021/03/15 02:17:32;;;;;;;29.85;16.20;;;;;;;5.23;64.38;98871.41;5060293;28;20048;-55
2021/03/15 02:20:26;;;;;;;30.17;17.80;;;;;;;5.23;64.43;98882.03;5069242;28;20090;-51
2021/03/15 02:22:55;;;;;;;31.23;16.88;;;;;;;5.23;64.05;98874.88;5050594;28;20131;-55
2021/03/15 02:25:35;;;;;;;28.73;14.95;;;;;;;5.24;64.11;98873.94;5050845;28;20478;-54
2021/03/15 02:28:12;;;;;;;27.20;16.80;;;;;;;5.25;65.16;98875.63;5051189;28;20051;-54
2021/03/15 02:30:59;;;;;;;28.95;16.98;;;;;;;5.24;64.76;98876.59;5050046;28;20399;-55
2021/03/15 02:33:31;;;;;;;27.98;16.83;;;;;;;5.19;64.49;98870.78;5051217;28;20036;-56
2021/03/15 02:35:59;;;;;;;28.13;16.58;;;;;;;5.17;64.40;98875.34;5064536;28;20085;-55
2021/03/15 02:38:33;;;;;;;29.83;17.65;;;;;;;5.16;64.75;98882.44;5066278;28;20265;-54
2021/03/15 02:41:00;;;;;;;34.00;18.52;;;;;;;5.17;64.41;98870.03;5070272;28;20131;-53
2021/03/15 02:43:31;;;;;;;32.92;18.63;;;;;;;5.16;64.71;98874.47;5069957;28;20111;-53
2021/03/15 02:46:00;;;;;;;29.15;18.17;;;;;;;5.15;64.62;98879.94;5063881;28;20511;-55
2021/03/15 02:48:27;;;;;;;30.58;18.38;;;;;;;4.33;64.49;98732.06;5051524;28;20090;-55
2021/03/15 02:50:55;;;;;;;31.73;18.45;;;;;;;5.13;64.84;98877.38;5057305;28;20520;-55
2021/03/15 02:53:22;;;;;;;33.38;18.63;;;;;;;4.68;64.52;98794.91;5054169;28;20028;-56
2021/03/15 02:55:49;;;;;;;31.70;18.88;;;;;;;5.09;65.49;98875.06;5052503;28;20132;-55
2021/03/15 02:58:17;;;;;;;30.38;18.48;;;;;;;5.10;64.60;98871.47;5050567;28;20410;-56
2021/03/15 03:00:44;;;;;;;32.10;18.73;;;;;;;5.02;64.58;98853.44;5051770;28;20037;-55
2021/03/15 03:03:10;;;;;;;30.65;18.48;;;;;;;4.93;65.00;98847.00;5049413;28;20033;-51
2021/03/15 03:05:37;;;;;;;31.85;18.80;;;;;;;4.88;64.87;98841.19;5049558;28;20047;-54
2021/03/15 03:08:04;;;;;;;32.58;19.60;;;;;;;4.99;65.08;98867.78;5049778;28;20037;-55
2021/03/15 03:10:31;;;;;;;29.73;18.52;;;;;;;5.00;65.69;98871.28;5053046;28;20039;-53
2021/03/15 03:12:58;;;;;;;30.20;18.63;;;;;;;5.04;65.23;98864.78;5049642;28;20041;-51
2021/03/15 03:15:32;;;;;;;33.97;18.88;;;;;;;5.05;65.31;98857.66;5049673;28;20045;-52
2021/03/15 03:18:01;;;;;;;28.15;17.83;;;;;;;5.01;65.21;98857.88;5049482;28;20047;-55
2021/03/15 03:20:28;;;;;;;28.80;17.95;;;;;;;5.05;64.78;98874.44;5050245;28;20040;-56
2021/03/15 03:22:56;;;;;;;34.40;19.17;;;;;;;5.06;65.53;98865.53;5051626;28;20037;-55
2021/03/15 03:25:24;;;;;;;31.08;18.42;;;;;;;5.09;64.66;98859.16;5049152;28;20059;-56
2021/03/15 03:27:55;;;;;;;36.10;20.15;;;;;;;4.96;64.97;98838.81;5049350;28;20036;-54
2021/03/15 03:30:25;;;;;;;32.45;19.05;;;;;;;5.08;65.04;98855.63;5050312;28;20503;-59
2021/03/15 03:32:52;;;;;;;31.75;18.77;;;;;;;5.04;65.17;98856.84;5049684;28;20036;-53
2021/03/15 03:35:18;;;;;;;31.10;18.52;;;;;;;5.11;64.83;98855.41;5052337;28;20043;-53
2021/03/15 03:37:43;;;;;;;30.70;18.65;;;;;;;5.11;64.70;98858.06;5049240;28;20124;-53
2021/03/15 03:40:09;;;;;;;28.67;17.83;;;;;;;5.02;64.68;98840.19;5050772;28;20483;-56
2021/03/15 03:42:35;;;;;;;29.73;19.02;;;;;;;5.07;64.83;98853.13;5049457;28;20116;-53
2021/03/15 03:45:01;;;;;;;33.22;19.92;;;;;;;5.11;64.54;98867.84;5054997;28;20147;-54
2021/03/15 03:47:27;;;;;;;32.33;18.75;;;;;;;5.12;64.49;98858.94;5052855;28;20449;-55
2021/03/15 03:49:52;;;;;;;33.00;18.10;;;;;;;5.12;64.42;98856.28;5057175;28;20056;-55
2021/03/15 03:52:20;;;;;;;32.90;19.50;;;;;;;5.10;64.97;98856.38;5064712;28;20040;-55
2021/03/15 03:54:49;;;;;;;32.90;19.95;;;;;;;5.02;64.95;98848.13;5063563;28;20128;-52
2021/03/15 03:57:30;;;;;;;34.15;19.58;;;;;;;5.23;64.80;98856.31;5052976;28;20040;-54
2021/03/15 04:00:00;;;;;;;30.77;19.42;;;;;;;5.09;64.58;98838.75;5057312;28;20805;-51
2021/03/15 04:02:27;;;;;;;30.90;18.85;;;;;;;5.13;64.83;98850.00;5054231;28;20032;-56
2021/03/15 04:05:07;;;;;;;27.67;18.55;;;;;;;5.23;64.66;98848.34;5052831;28;20033;-57
2021/03/15 04:07:34;;;;;;;32.78;19.20;;;;;;;5.12;64.53;98845.66;5053062;28;20037;-54
2021/03/15 04:10:08;;;;;;;33.22;19.77;;;;;;;5.22;64.96;98846.66;5065979;28;20036;-56
2021/03/15 04:12:36;;;;;;;32.75;17.80;;;;;;;5.17;64.91;98846.16;5062454;28;20425;-51
2021/03/15 04:15:04;;;;;;;32.25;19.35;;;;;;;5.16;64.83;98858.56;5066754;28;20398;-53
2021/03/15 04:17:36;;;;;;;25.08;17.52;;;;;;;5.20;65.02;98851.22;5071276;28;20067;-56
2021/03/15 04:20:08;;;;;;;28.60;17.73;;;;;;;5.17;64.77;98836.38;5056685;28;20094;-54
2021/03/15 04:22:38;;;;;;;28.95;17.88;;;;;;;5.24;64.54;98857.19;5053780;28;20040;-54
2021/03/15 04:25:05;;;;;;;26.90;17.00;;;;;;;5.29;64.34;98850.53;5053936;28;20043;-57
2021/03/15 04:27:32;;;;;;;25.02;16.98;;;;;;;5.28;64.13;98848.84;5052505;28;20043;-55
2021/03/15 04:29:58;;;;;;;28.75;17.15;;;;;;;5.30;64.66;98846.94;5052571;28;20433;-54
2021/03/15 04:32:24;;;;;;;31.15;16.45;;;;;;;5.33;64.18;98853.81;5053236;28;20028;-53
2021/03/15 04:34:51;;;;;;;24.90;16.00;;;;;;;5.28;64.04;98848.03;5053042;28;20060;-58
2021/03/15 04:37:17;;;;;;;23.52;15.80;;;;;;;5.30;64.04;98846.94;5063629;28;20040;-48
2021/03/15 04:39:44;;;;;;;22.50;15.60;;;;;;;5.37;63.42;98857.09;5072048;28;20463;-55
2021/03/15 04:42:10;;;;;;;27.48;15.30;;;;;;;5.37;63.73;98847.31;5072196;28;20099;-56
2021/03/15 04:44:38;;;;;;;24.48;15.82;;;;;;;5.34;63.97;98842.25;5069758;28;20505;-55
2021/03/15 04:47:04;;;;;;;24.63;16.33;;;;;;;5.34;63.83;98842.25;5059683;28;20486;-55
2021/03/15 04:49:32;;;;;;;22.25;15.95;;;;;;;5.49;63.66;98850.84;5052390;28;20060;-54
2021/03/15 04:52:01;;;;;;;23.13;15.57;;;;;;;5.36;62.97;98815.59;5060034;28;20114;-56
2021/03/15 04:54:28;;;;;;;21.65;15.45;;;;;;;5.46;63.38;98859.91;5052753;28;20041;-56
2021/03/15 04:56:54;;;;;;;22.25;15.60;;;;;;;5.14;62.69;98803.94;5052778;28;20067;-57
2021/03/15 04:59:21;;;;;;;23.90;15.35;;;;;;;5.23;63.06;98819.16;5062184;28;20460;-56
2021/03/15 05:01:49;;;;;;;22.38;14.90;;;;;;;5.39;63.33;98857.84;5067725;28;20037;-55
2021/03/15 05:04:16;;;;;;;23.13;14.98;;;;;;;5.39;63.27;98860.50;5050495;28;20029;-51
2021/03/15 05:06:43;;;;;;;22.05;15.18;;;;;;;5.44;63.37;98864.50;5052260;28;20102;-58
2021/03/15 05:09:10;;;;;;;21.10;15.20;;;;;;;5.48;62.84;98867.75;5051680;28;20033;-57
2021/03/15 05:11:38;;;;;;;22.90;15.43;;;;;;;5.50;62.83;98857.88;5057378;28;20375;-60
2021/03/15 05:14:05;;;;;;;24.13;16.65;;;;;;;5.52;62.88;98858.59;5062238;28;20036;-51
2021/03/15 05:16:42;;;;;;;22.27;15.52;;;;;;;5.55;62.84;98861.03;5069445;28;20036;-57
2021/03/15 05:19:12;;;;;;;22.25;15.32;;;;;;;5.56;63.06;98864.53;5069471;28;20032;-56
2021/03/15 05:21:42;;;;;;;25.35;15.05;;;;;;;5.58;63.06;98862.59;5068167;28;20157;-58
2021/03/15 05:24:09;;;;;;;21.25;15.52;;;;;;;5.59;62.74;98872.25;5055415;28;20041;-57
2021/03/15 05:26:37;;;;;;;23.73;16.60;;;;;;;5.57;62.36;98847.63;5052292;28;20391;-59
2021/03/15 05:29:04;;;;;;;25.25;15.95;;;;;;;5.61;62.49;98838.47;5051259;28;20094;-57
2021/03/15 05:31:30;;;;;;;23.52;16.23;;;;;;;5.45;62.56;98823.72;5051151;28;20033;-59
2021/03/15 05:33:57;;;;;;;22.00;15.35;;;;;;;5.19;62.16;98796.47;5053150;28;20040;-57
2021/03/15 05:36:24;;;;;;;21.92;16.00;;;;;;;5.54;62.39;98848.69;5061657;28;20044;-54
2021/03/15 05:38:50;;;;;;;22.83;15.77;;;;;;;5.45;62.57;98836.13;5058216;28;20044;-56
2021/03/15 05:41:18;;;;;;;22.83;15.73;;;;;;;5.31;61.72;98800.88;5069013;28;20044;-58
2021/03/15 05:44:14;;;;;;;26.90;15.70;;;;;;;5.65;62.63;98853.19;5059221;28;20576;-56
2021/03/15 05:46:54;;;;;;;;;;;;;;;5.71;61.99;98844.78;5053659;28;20048;-54
2021/03/15 05:49:34;;;;;;;19.17;13.48;;;;;;;5.69;62.00;98853.81;5053387;28;19920;-54
2021/03/15 05:52:45;;;;;;;19.73;13.98;;;;;;;5.67;62.12;98858.41;5064296;28;20055;-50
2021/03/15 05:55:20;;;;;;;22.25;14.85;;;;;;;5.70;61.87;98860.81;5051312;28;20048;-55
2021/03/15 05:58:04;;;;;;;21.00;14.15;;;;;;;5.61;61.91;98859.72;5053405;28;20041;-53
2021/03/15 06:00:35;;;;;;;22.83;15.27;;;;;;;5.63;61.88;98872.88;5067443;28;20041;-56
2021/03/15 06:03:12;;;;;;;20.23;11.68;;;;;;;5.73;61.64;98874.72;5070393;28;20485;-53
2021/03/15 06:05:43;;;;;;;23.83;15.40;;;;;;;5.78;61.24;98870.88;5066217;28;20057;-57
2021/03/15 06:08:20;;;;;;;23.17;15.63;;;;;;;5.65;61.15;98839.91;5064014;28;20036;-54
2021/03/15 06:11:06;;;;;;;18.60;13.93;;;;;;;5.74;60.97;98865.78;5067606;28;20109;-49
2021/03/15 06:13:33;;;;;;;21.92;14.82;;;;;;;5.79;60.45;98864.59;5064154;28;20032;-50
2021/03/15 06:16:01;;;;;;;21.67;15.05;;;;;;;5.74;61.19;98870.25;5069995;28;20040;-49
2021/03/15 06:18:29;;;;;;;21.58;14.63;;;;;;;5.77;60.85;98875.31;5066604;28;20079;-53
2021/03/15 06:20:55;;;;;;;23.33;15.80;;;;;;;5.79;60.55;98864.59;5065421;28;20029;-52
2021/03/15 06:23:20;;;;;;;21.23;15.10;;;;;;;5.80;60.21;98868.94;5068729;28;20034;-54
2021/03/15 06:25:48;;;;;;;22.23;15.32;;;;;;;5.81;61.07;98868.84;5068061;28;20035;-53
2021/03/15 06:28:15;;;;;;;21.42;16.23;;;;;;;5.72;61.01;98875.69;5068432;28;20029;-54
2021/03/15 06:30:41;;;;;;;20.63;15.05;;;;;;;5.66;60.40;98868.16;5063951;28;20051;-56
2021/03/15 06:33:07;;;;;;;24.17;15.70;;;;;;;5.72;60.67;98878.34;5068699;28;20063;-54
2021/03/15 06:35:36;;;;;;;22.83;16.25;;;;;;;5.74;60.96;98875.56;5063242;28;20068;-55
2021/03/15 06:38:03;;;;;;;21.83;14.65;;;;;;;5.42;60.72;98829.22;5052551;28;20520;-49
2021/03/15 06:40:31;;;;;;;25.63;16.05;;;;;;;5.69;60.90;98878.59;5057002;28;20025;-57
2021/03/15 06:42:58;;;;;;;21.58;14.20;;;;;;;5.68;61.28;98882.22;5066597;28;20044;-61
2021/03/15 06:45:23;;;;;;;22.50;15.40;;;;;;;5.69;60.65;98896.31;5058563;28;20549;-54
2021/03/15 06:47:50;;;;;;;23.95;15.63;;;;;;;5.59;61.15;98894.38;5056388;28;20039;-54
2021/03/15 06:50:17;;;;;;;24.13;15.68;;;;;;;5.52;61.77;98906.38;5053080;28;20120;-54
2021/03/15 06:53:05;;;;;;;19.10;14.50;;;;;;;5.56;61.67;98907.88;5059431;28;20037;-55
2021/03/15 06:55:52;;;;;;;23.55;14.23;;;;;;;5.60;61.96;98904.03;5050963;28;20159;-60
2021/03/15 06:58:50;;;;;;;21.77;13.93;;;;;;;5.67;61.73;98911.53;5049107;28;20039;-55
2021/03/15 07:01:23;;;;;;;22.88;14.43;;;;;;;5.62;61.07;98924.31;5061336;28;20024;-57
2021/03/15 07:03:50;;;;;;;22.17;15.02;;;;;;;5.59;61.31;98925.38;5061821;28;20040;-57
2021/03/15 07:06:19;;;;;;;20.15;14.70;;;;;;;5.59;61.27;98914.75;5063410;28;20029;-50
2021/03/15 07:08:46;;;;;;;21.80;14.50;;;;;;;5.51;61.58;98922.44;5067996;28;20037;-53
2021/03/15 07:11:23;;;;;;;22.02;13.88;;;;;;;5.43;62.25;98926.53;5069382;28;20114;-54
2021/03/15 07:13:50;;;;;;;21.77;13.45;;;;;;;5.39;62.07;98913.56;5065099;28;20094;-52
2021/03/15 07:16:28;;;;;;;23.75;14.93;;;;;;;5.10;62.62;98890.88;5067912;28;20044;-54
2021/03/15 07:18:54;;;;;;;20.90;14.75;;;;;;;5.28;61.84;98920.50;5069493;28;20036;-51
2021/03/15 07:21:38;;;;;;;21.23;14.48;;;;;;;5.35;63.25;98928.03;5068863;28;20054;-58
2021/03/15 07:24:09;;;;;;;21.95;13.98;;;;;;;5.33;62.35;98925.50;5061549;28;20075;-54
2021/03/15 07:26:37;;;;;;;20.52;14.43;;;;;;;5.14;62.00;98896.81;5068163;28;20123;-54
2021/03/15 07:29:11;;;;;;;23.55;15.52;;;;;;;5.34;62.82;98929.00;5072119;28;20089;-55
2021/03/15 07:31:36;;;;;;;23.70;15.30;;;;;;;5.30;62.24;98917.75;5067432;28;20032;-60
2021/03/15 07:34:01;;;;;;;23.63;15.05;;;;;;;5.31;62.23;98917.66;5069575;28;20048;-51
2021/03/15 07:36:31;;;;;;;23.08;14.93;;;;;;;5.35;62.11;98928.88;5071100;28;20037;-51
2021/03/15 07:39:08;;;;;;;20.50;14.73;;;;;;;5.31;62.89;98924.75;5067603;28;20036;-52
2021/03/15 07:41:37;;;;;;;21.15;15.43;;;;;;;5.21;62.31;98921.09;5062893;28;20025;-53
2021/03/15 07:44:15;;;;;;;22.50;14.98;;;;;;;5.27;62.60;98925.94;5066892;28;20045;-53
2021/03/15 07:46:42;;;;;;;26.23;15.50;;;;;;;5.20;62.38;98914.91;5071659;28;20139;-58
2021/03/15 07:49:22;;;;;;;23.38;15.07;;;;;;;5.02;62.53;98899.38;5069490;28;20502;-62
2021/03/15 07:52:00;;;;;;;23.73;15.35;;;;;;;5.07;62.54;98906.19;5062218;28;20064;-63
2021/03/15 07:54:30;;;;;;;22.58;15.45;;;;;;;5.02;62.97;98922.41;5063990;28;20040;-50
2021/03/15 07:57:14;;;;;;;24.77;15.27;;;;;;;5.14;62.82;98934.78;5068461;28;20123;-53
2021/03/15 07:59:42;;;;;;;21.95;15.65;;;;;;;5.10;62.63;98937.78;5060743;28;20572;-53
2021/03/15 08:02:13;;;;;;;22.52;15.65;;;;;;;5.07;63.09;98930.88;5071622;28;20139;-55
2021/03/15 08:04:39;;;;;;;21.45;15.48;;;;;;;5.01;62.74;98929.53;5065636;28;20553;-52
2021/03/15 08:07:05;;;;;;;22.65;15.88;;;;;;;5.09;63.36;98938.75;5064542;28;20154;-52
2021/03/15 08:09:30;;;;;;;21.13;15.45;;;;;;;5.01;62.69;98912.78;5059397;28;20078;-56
2021/03/15 08:11:57;;;;;;;23.83;15.40;;;;;;;5.19;62.80;98931.81;5071787;28;20032;-54
2021/03/15 08:14:24;;;;;;;24.27;16.38;;;;;;;5.14;62.87;98915.38;5071005;28;20048;-52
2021/03/15 08:16:53;;;;;;;24.80;16.42;;;;;;;4.96;62.57;98885.72;5069838;28;20051;-59
2021/03/15 08:19:20;;;;;;;24.17;16.67;;;;;;;5.00;62.41;98913.72;5071636;28;20025;-58
2021/03/15 08:21:47;;;;;;;22.30;15.32;;;;;;;5.22;62.83;98944.84;5064823;28;20039;-57
2021/03/15 08:24:16;;;;;;;22.77;15.85;;;;;;;5.19;63.16;98934.47;5067832;28;20500;-56
2021/03/15 08:26:46;;;;;;;25.38;16.05;;;;;;;5.20;63.21;98945.94;5066229;28;20037;-55
2021/03/15 08:29:13;;;;;;;21.48;16.02;;;;;;;5.21;63.09;98945.81;5076211;28;20612;-53
2021/03/15 08:31:46;;;;;;;22.50;15.38;;;;;;;4.83;62.75;98868.03;5083921;28;20082;-57
2021/03/15 08:34:13;;;;;;;25.33;16.65;;;;;;;5.13;62.80;98921.66;5070082;28;20504;-56
2021/03/15 08:36:43;;;;;;;24.30;16.77;;;;;;;5.23;62.70;98951.84;5071378;28;20032;-57
2021/03/15 08:39:27;;;;;;;22.50;16.25;;;;;;;5.27;63.24;98942.69;5055854;28;20024;-50
2021/03/15 08:42:11;;;;;;;23.42;15.60;;;;;;;5.26;63.06;98943.66;5066243;28;20492;-56
2021/03/15 08:44:38;;;;;;;26.60;16.35;;;;;;;5.25;63.00;98943.78;5066662;28;20084;-56
2021/03/15 08:47:04;;;;;;;24.98;16.67;;;;;;;5.22;62.56;98951.97;5067730;28;20094;-55
2021/03/15 08:49:31;;;;;;;24.42;16.40;;;;;;;5.24;62.93;98942.94;5071552;28;20060;-53
2021/03/15 08:51:57;;;;;;;23.63;15.57;;;;;;;5.29;62.55;98943.44;5071969;28;20051;-55
2021/03/15 08:54:38;;;;;;;25.30;17.00;;;;;;;5.34;62.84;98947.59;5060410;28;20041;-52
2021/03/15 08:57:05;;;;;;;25.98;16.58;;;;;;;5.30;62.80;98952.25;5057182;28;20127;-54
2021/03/15 08:59:32;;;;;;;24.55;17.40;;;;;;;5.30;62.83;98963.75;5080934;28;20561;-50
2021/03/15 09:02:05;;;;;;;23.83;16.45;;;;;;;5.31;62.60;98965.44;5063731;28;20047;-54
2021/03/15 09:04:40;;;;;;;28.77;17.73;;;;;;;5.32;63.25;98966.25;5058719;28;20577;-55
2021/03/15 09:07:28;;;;;;;26.40;17.17;;;;;;;5.38;63.35;98959.66;5062267;28;20055;-51
2021/03/15 09:09:54;;;;;;;27.00;17.42;;;;;;;5.21;62.95;98951.13;5061134;28;20037;-51
2021/03/15 09:12:19;;;;;;;24.83;16.33;;;;;;;5.27;62.84;98963.94;5071036;28;20090;-53
2021/03/15 09:14:58;;;;;;;24.33;17.30;;;;;;;5.37;63.59;98966.78;5070722;28;20127;-50
2021/03/15 09:17:23;;;;;;;25.92;16.63;;;;;;;5.40;62.82;98955.09;5069020;28;20037;-53
2021/03/15 09:19:49;;;;;;;24.45;16.17;;;;;;;5.38;62.46;98959.66;5064733;28;20089;-58
2021/03/15 09:22:21;;;;;;;26.17;16.58;;;;;;;5.44;62.99;98964.53;5066343;28;20068;-51
2021/03/15 09:24:57;;;;;;;22.10;16.23;;;;;;;5.43;62.21;98965.47;5053988;28;20051;-55
2021/03/15 09:27:27;;;;;;;27.33;16.73;;;;;;;5.36;62.67;98959.75;5056590;28;20067;-52
2021/03/15 09:30:04;;;;;;;26.40;17.15;;;;;;;5.27;62.83;98940.03;5054333;28;20040;-52
2021/03/15 09:32:35;;;;;;;23.63;16.50;;;;;;;5.37;62.77;98963.28;5050783;28;20024;-61
2021/03/15 09:35:13;;;;;;;26.98;17.52;;;;;;;5.37;62.87;98958.81;5054089;28;20089;-60
2021/03/15 09:37:47;;;;;;;23.38;16.05;;;;;;;5.36;62.65;98967.72;5052764;28;20036;-60
2021/03/15 09:40:14;;;;;;;24.58;16.98;;;;;;;5.41;62.81;98964.75;5053438;28;20036;-54
2021/03/15 09:42:41;;;;;;;27.70;17.35;;;;;;;5.49;62.35;98972.16;5055953;28;20490;-57
2021/03/15 09:45:08;;;;;;;24.88;16.33;;;;;;;5.52;62.14;98970.09;5056064;28;20164;-54
2021/03/15 09:47:34;;;;;;;30.58;17.90;;;;;;;5.51;62.22;98960.44;5050216;28;20057;-63
2021/03/15 09:49:59;;;;;;;27.90;17.45;;;;;;;5.59;62.64;98970.50;5055875;28;20044;-64
2021/03/15 09:52:25;;;;;;;26.77;16.67;;;;;;;5.52;61.90;98956.81;5051148;28;20094;-67
2021/03/15 09:54:56;;;;;;;24.20;15.95;;;;;;;5.64;61.91;98972.84;5056955;28;20032;-64
2021/03/15 09:57:23;;;;;;;26.13;17.45;;;;;;;5.65;62.00;98979.84;5055145;28;20128;-62
2021/03/15 09:59:49;;;;;;;28.05;17.88;;;;;;;5.64;62.07;98976.31;5056110;28;20131;-62
2021/03/15 10:02:26;;;;;;;25.10;17.02;;;;;;;5.61;62.02;98979.22;5051540;28;20077;-62
2021/03/15 10:04:51;;;;;;;25.25;16.73;;;;;;;5.18;62.28;98906.22;5067427;28;20032;-61
2021/03/15 10:07:17;;;;;;;29.05;17.60;;;;;;;5.64;61.59;98983.47;5069868;28;20043;-60
2021/03/15 10:09:43;;;;;;;25.45;17.27;;;;;;;5.68;61.68;98976.94;5056351;28;20454;-61
2021/03/15 10:12:20;;;;;;;26.23;17.17;;;;;;;5.74;61.92;98969.38;5051171;28;20080;-64
2021/03/15 10:14:46;;;;;;;27.55;16.98;;;;;;;5.81;61.70;98980.41;5066718;28;20497;-68
2021/03/15 10:17:20;;;;;;;25.65;16.95;;;;;;;5.77;61.55;98965.63;5069879;28;20036;-77
2021/03/15 10:19:46;;;;;;;27.38;17.50;;;;;;;5.90;61.18;98973.53;5055331;28;20528;-69
2021/03/15 10:22:17;;;;;;;26.48;17.42;;;;;;;6.03;61.20;98978.81;5060332;28;20131;-73
2021/03/15 10:24:45;;;;;;;25.10;17.92;;;;;;;5.94;61.28;98956.41;5058429;28;20035;-64
2021/03/15 10:27:25;;;;;;;26.00;16.73;;;;;;;6.18;61.17;98985.63;5059423;28;20032;-71
2021/03/15 10:30:11;;;;;;;24.55;16.65;;;;;;;6.09;60.55;98982.81;5065364;28;20029;-73
2021/03/15 10:32:40;;;;;;;26.40;16.83;;;;;;;6.05;60.84;98989.31;5057089;28;20568;-69
2021/03/15 10:35:08;;;;;;;27.80;17.90;;;;;;;6.01;61.39;98983.38;5063879;28;20047;-71
2021/03/15 10:37:38;;;;;;;28.67;18.23;;;;;;;5.86;61.25;98959.66;5058015;28;20182;-71
2021/03/15 10:40:06;;;;;;;29.77;18.10;;;;;;;5.98;61.51;98987.09;5054244;28;20041;-76
2021/03/15 10:42:35;;;;;;;26.25;17.23;;;;;;;6.01;60.89;98983.38;5052681;28;20059;-74
2021/03/15 10:45:06;;;;;;;29.50;18.48;;;;;;;6.05;61.02;98984.88;5062039;28;20054;-69
2021/03/15 10:47:34;;;;;;;26.58;17.77;;;;;;;6.11;61.19;98983.53;5069950;28;20127;-67
2021/03/15 10:50:00;;;;;;;28.27;18.08;;;;;;;6.14;61.30;98986.81;5068121;28;20040;-71
2021/03/15 10:52:28;;;;;;;28.90;18.45;;;;;;;6.12;61.24;98996.72;5063478;28;20025;-73
2021/03/15 10:54:54;;;;;;;30.52;18.58;;;;;;;6.13;60.62;98998.41;5063930;28;20127;-68
2021/03/15 10:57:21;;;;;;;27.30;17.95;;;;;;;6.06;60.48;98991.88;5068674;28;20127;-65
2021/03/15 10:59:49;;;;;;;29.95;17.73;;;;;;;5.93;61.27;98981.28;5062542;28;20413;-68
2021/03/15 11:02:23;;;;;;;31.08;18.77;;;;;;;5.96;61.47;98999.66;5060788;28;20047;-66
2021/03/15 11:04:57;;;;;;;29.40;18.20;;;;;;;5.98;61.84;98996.88;5059033;28;20036;-62
2021/03/15 11:07:31;;;;;;;26.95;18.02;;;;;;;6.01;61.39;98988.69;5069090;28;20032;-55
2021/03/15 11:10:12;;;;;;;28.33;17.90;;;;;;;5.95;61.63;98978.50;5071535;28;20059;-64
2021/03/15 11:12:52;;;;;;;27.50;18.20;;;;;;;5.96;61.38;98983.72;5068200;28;20458;-61
2021/03/15 11:15:32;;;;;;;30.15;18.65;;;;;;;6.14;61.62;98996.59;5062102;28;20033;-60
2021/03/15 11:18:04;;;;;;;27.75;17.02;;;;;;;6.17;60.70;98996.38;5072139;28;20631;-58
2021/03/15 11:20:50;;;;;;;27.08;18.25;;;;;;;5.86;61.50;98938.41;5058172;28;20465;-58
2021/03/15 11:23:32;;;;;;;;;;;;;;;6.43;59.66;98988.22;5054080;28;20040;-63
2021/03/15 11:26:00;;;;;;;31.02;18.25;;;;;;;6.39;59.91;98992.94;5055170;28;19959;-63
2021/03/15 11:28:31;;;;;;;26.92;18.08;;;;;;;6.35;60.72;98983.50;5057870;28;20029;-63
2021/03/15 11:30:59;;;;;;;28.50;18.73;;;;;;;6.31;60.80;98984.69;5057430;28;20064;-64
2021/03/15 11:33:27;;;;;;;27.42;17.70;;;;;;;6.36;60.85;98992.31;5066906;28;20180;-64
2021/03/15 11:35:53;;;;;;;31.40;18.73;;;;;;;6.42;60.75;98986.53;5055454;28;20064;-64
2021/03/15 11:38:23;;;;;;;29.42;19.63;;;;;;;6.52;60.83;98992.00;5068282;28;20075;-65